sensor_id;sensor_type;location;lat;lon;timestamp;P1;durP1;ratioP1;P2;durP2;ratioP2
77298;SDS011;66361;52.034;20.656;2023-04-24T00:02:46;15.65;;;10.82;;
77298;SDS011;66361;52.034;20.656;2023-04-24T00:06:50;16.25;;;10.70;;
77298;SDS011;66361;52.034;20.656;2023-04-24T00:10:55;17.27;;;11.30;;
77298;SDS011;66361;52.034;20.656;2023-04-24T00:14:58;14.13;;;10.40;;
77298;SDS011;66361;52.034;20.656;2023-04-24T00:19:03;14.75;;;10.50;;
77298;SDS011;66361;52.034;20.656;2023-04-24T00:23:07;16.67;;;10.20;;
77298;SDS011;66361;52.034;20.656;2023-04-24T00:31:13;15.75;;;10.38;;
77298;SDS011;66361;52.034;20.656;2023-04-24T00:39:21;16.98;;;10.30;;
77298;SDS011;66361;52.034;20.656;2023-04-24T00:43:24;14.50;;;10.30;;
77298;SDS011;66361;52.034;20.656;2023-04-24T00:47:30;14.40;;;9.70;;
77298;SDS011;66361;52.034;20.656;2023-04-24T00:51:36;17.63;;;11.52;;
77298;SDS011;66361;52.034;20.656;2023-04-24T00:55:39;13.82;;;9.98;;
77298;SDS011;66361;52.034;20.656;2023-04-24T00:59:42;14.77;;;10.82;;
77298;SDS011;66361;52.034;20.656;2023-04-24T01:03:45;16.25;;;10.48;;
77298;SDS011;66361;52.034;20.656;2023-04-24T01:07:50;18.20;;;11.98;;
77298;SDS011;66361;52.034;20.656;2023-04-24T01:11:53;17.80;;;11.70;;
77298;SDS011;66361;52.034;20.656;2023-04-24T01:15:57;15.27;;;11.18;;
77298;SDS011;66361;52.034;20.656;2023-04-24T01:20:03;17.50;;;11.75;;
77298;SDS011;66361;52.034;20.656;2023-04-24T01:24:09;16.05;;;11.27;;
77298;SDS011;66361;52.034;20.656;2023-04-24T01:28:12;15.23;;;11.02;;
77298;SDS011;66361;52.034;20.656;2023-04-24T01:32:16;15.02;;;10.95;;
77298;SDS011;66361;52.034;20.656;2023-04-24T01:36:19;14.52;;;11.20;;
77298;SDS011;66361;52.034;20.656;2023-04-24T01:40:28;15.30;;;12.90;;
77298;SDS011;66361;52.034;20.656;2023-04-24T01:44:31;16.45;;;11.88;;
77298;SDS011;66361;52.034;20.656;2023-04-24T01:48:35;16.65;;;11.38;;
77298;SDS011;66361;52.034;20.656;2023-04-24T01:52:38;15.95;;;11.77;;
77298;SDS011;66361;52.034;20.656;2023-04-24T02:00:45;16.17;;;11.63;;
77298;SDS011;66361;52.034;20.656;2023-04-24T02:04:49;15.68;;;10.30;;
77298;SDS011;66361;52.034;20.656;2023-04-24T02:12:57;15.30;;;10.75;;
77298;SDS011;66361;52.034;20.656;2023-04-24T02:17:00;17.45;;;11.52;;
77298;SDS011;66361;52.034;20.656;2023-04-24T02:21:04;16.80;;;11.35;;
77298;SDS011;66361;52.034;20.656;2023-04-24T02:25:07;17.17;;;11.40;;
77298;SDS011;66361;52.034;20.656;2023-04-24T02:29:12;16.08;;;11.75;;
77298;SDS011;66361;52.034;20.656;2023-04-24T02:33:15;17.88;;;12.07;;
77298;SDS011;66361;52.034;20.656;2023-04-24T02:37:19;16.27;;;11.85;;
77298;SDS011;66361;52.034;20.656;2023-04-24T02:45:26;17.75;;;11.00;;
77298;SDS011;66361;52.034;20.656;2023-04-24T02:49:29;19.30;;;11.52;;
77298;SDS011;66361;52.034;20.656;2023-04-24T02:57:35;18.60;;;11.75;;
77298;SDS011;66361;52.034;20.656;2023-04-24T03:01:39;17.35;;;12.30;;
77298;SDS011;66361;52.034;20.656;2023-04-24T03:05:42;17.27;;;11.00;;
77298;SDS011;66361;52.034;20.656;2023-04-24T03:09:46;27.50;;;13.95;;
77298;SDS011;66361;52.034;20.656;2023-04-24T03:17:53;17.05;;;10.80;;
77298;SDS011;66361;52.034;20.656;2023-04-24T03:21:57;18.55;;;11.43;;
77298;SDS011;66361;52.034;20.656;2023-04-24T03:30:06;21.13;;;12.02;;
77298;SDS011;66361;52.034;20.656;2023-04-24T03:34:10;28.52;;;15.68;;
77298;SDS011;66361;52.034;20.656;2023-04-24T03:38:13;24.20;;;14.02;;
77298;SDS011;66361;52.034;20.656;2023-04-24T03:42:16;21.10;;;12.70;;
77298;SDS011;66361;52.034;20.656;2023-04-24T03:50:23;18.13;;;11.40;;
77298;SDS011;66361;52.034;20.656;2023-04-24T03:54:30;15.43;;;10.90;;
77298;SDS011;66361;52.034;20.656;2023-04-24T03:58:33;15.88;;;10.98;;
77298;SDS011;66361;52.034;20.656;2023-04-24T04:02:36;17.70;;;11.93;;
77298;SDS011;66361;52.034;20.656;2023-04-24T04:06:41;15.75;;;11.48;;
77298;SDS011;66361;52.034;20.656;2023-04-24T04:10:45;16.48;;;11.88;;
77298;SDS011;66361;52.034;20.656;2023-04-24T04:14:47;14.85;;;11.52;;
77298;SDS011;66361;52.034;20.656;2023-04-24T04:22:55;14.88;;;11.32;;
77298;SDS011;66361;52.034;20.656;2023-04-24T04:26:58;17.48;;;10.30;;
77298;SDS011;66361;52.034;20.656;2023-04-24T04:31:01;15.18;;;10.88;;
77298;SDS011;66361;52.034;20.656;2023-04-24T04:35:07;15.23;;;10.55;;
77298;SDS011;66361;52.034;20.656;2023-04-24T04:39:12;21.10;;;12.20;;
77298;SDS011;66361;52.034;20.656;2023-04-24T04:43:16;14.82;;;9.57;;
77298;SDS011;66361;52.034;20.656;2023-04-24T04:47:20;19.58;;;10.63;;
77298;SDS011;66361;52.034;20.656;2023-04-24T04:51:24;13.48;;;9.60;;
77298;SDS011;66361;52.034;20.656;2023-04-24T04:55:28;12.50;;;9.75;;
77298;SDS011;66361;52.034;20.656;2023-04-24T04:59:32;14.82;;;9.80;;
77298;SDS011;66361;52.034;20.656;2023-04-24T05:03:35;11.63;;;9.30;;
77298;SDS011;66361;52.034;20.656;2023-04-24T05:07:39;11.55;;;9.07;;
77298;SDS011;66361;52.034;20.656;2023-04-24T05:11:43;11.82;;;8.65;;
77298;SDS011;66361;52.034;20.656;2023-04-24T05:15:46;12.27;;;8.63;;
77298;SDS011;66361;52.034;20.656;2023-04-24T05:19:51;15.23;;;9.27;;
77298;SDS011;66361;52.034;20.656;2023-04-24T05:23:54;12.45;;;9.82;;
77298;SDS011;66361;52.034;20.656;2023-04-24T05:27:58;13.85;;;9.30;;
77298;SDS011;66361;52.034;20.656;2023-04-24T05:32:01;13.85;;;8.85;;
77298;SDS011;66361;52.034;20.656;2023-04-24T05:36:05;13.13;;;8.80;;
77298;SDS011;66361;52.034;20.656;2023-04-24T05:40:09;13.60;;;8.25;;
77298;SDS011;66361;52.034;20.656;2023-04-24T05:44:14;10.50;;;8.23;;
77298;SDS011;66361;52.034;20.656;2023-04-24T05:48:17;10.70;;;7.43;;
77298;SDS011;66361;52.034;20.656;2023-04-24T05:52:20;8.88;;;7.57;;
77298;SDS011;66361;52.034;20.656;2023-04-24T05:56:23;9.13;;;6.70;;
77298;SDS011;66361;52.034;20.656;2023-04-24T06:00:28;7.97;;;7.00;;
77298;SDS011;66361;52.034;20.656;2023-04-24T06:04:31;10.02;;;6.70;;
77298;SDS011;66361;52.034;20.656;2023-04-24T06:08:34;9.00;;;6.97;;
77298;SDS011;66361;52.034;20.656;2023-04-24T06:12:38;7.53;;;6.60;;
77298;SDS011;66361;52.034;20.656;2023-04-24T06:16:43;8.18;;;6.78;;
77298;SDS011;66361;52.034;20.656;2023-04-24T06:24:51;7.13;;;6.43;;
77298;SDS011;66361;52.034;20.656;2023-04-24T06:28:54;7.13;;;6.43;;
77298;SDS011;66361;52.034;20.656;2023-04-24T06:33:00;9.00;;;6.88;;
77298;SDS011;66361;52.034;20.656;2023-04-24T06:37:20;10.77;;;7.18;;
77298;SDS011;66361;52.034;20.656;2023-04-24T06:41:23;8.45;;;6.30;;
77298;SDS011;66361;52.034;20.656;2023-04-24T06:45:26;7.85;;;5.88;;
77298;SDS011;66361;52.034;20.656;2023-04-24T06:49:30;7.38;;;5.50;;
77298;SDS011;66361;52.034;20.656;2023-04-24T06:53:35;6.20;;;5.60;;
77298;SDS011;66361;52.034;20.656;2023-04-24T06:57:39;6.85;;;5.63;;
77298;SDS011;66361;52.034;20.656;2023-04-24T07:01:42;7.45;;;6.40;;
77298;SDS011;66361;52.034;20.656;2023-04-24T07:05:47;9.98;;;7.28;;
77298;SDS011;66361;52.034;20.656;2023-04-24T07:09:52;9.32;;;6.40;;
77298;SDS011;66361;52.034;20.656;2023-04-24T07:13:57;8.52;;;6.90;;
77298;SDS011;66361;52.034;20.656;2023-04-24T07:18:00;9.20;;;6.30;;
77298;SDS011;66361;52.034;20.656;2023-04-24T07:22:10;6.55;;;5.93;;
77298;SDS011;66361;52.034;20.656;2023-04-24T07:26:17;7.70;;;6.32;;
77298;SDS011;66361;52.034;20.656;2023-04-24T07:30:21;6.82;;;6.13;;
77298;SDS011;66361;52.034;20.656;2023-04-24T07:34:25;7.30;;;6.43;;
77298;SDS011;66361;52.034;20.656;2023-04-24T07:38:30;7.15;;;6.45;;
77298;SDS011;66361;52.034;20.656;2023-04-24T07:42:33;6.68;;;5.72;;
77298;SDS011;66361;52.034;20.656;2023-04-24T07:46:37;6.93;;;5.20;;
77298;SDS011;66361;52.034;20.656;2023-04-24T07:50:40;6.30;;;5.22;;
77298;SDS011;66361;52.034;20.656;2023-04-24T07:54:44;7.47;;;5.30;;
77298;SDS011;66361;52.034;20.656;2023-04-24T07:58:47;5.63;;;4.90;;
77298;SDS011;66361;52.034;20.656;2023-04-24T08:02:50;6.30;;;5.30;;
77298;SDS011;66361;52.034;20.656;2023-04-24T08:06:55;5.32;;;4.82;;
77298;SDS011;66361;52.034;20.656;2023-04-24T08:11:00;7.13;;;5.78;;
77298;SDS011;66361;52.034;20.656;2023-04-24T08:15:03;7.30;;;5.85;;
77298;SDS011;66361;52.034;20.656;2023-04-24T08:19:07;5.22;;;4.57;;
77298;SDS011;66361;52.034;20.656;2023-04-24T08:23:12;5.53;;;4.68;;
77298;SDS011;66361;52.034;20.656;2023-04-24T08:27:17;5.85;;;4.40;;
77298;SDS011;66361;52.034;20.656;2023-04-24T08:31:20;12.80;;;4.97;;
77298;SDS011;66361;52.034;20.656;2023-04-24T08:35:24;6.53;;;4.40;;
77298;SDS011;66361;52.034;20.656;2023-04-24T08:39:27;6.45;;;4.95;;
77298;SDS011;66361;52.034;20.656;2023-04-24T08:43:34;5.93;;;5.10;;
77298;SDS011;66361;52.034;20.656;2023-04-24T08:47:41;5.72;;;4.10;;
77298;SDS011;66361;52.034;20.656;2023-04-24T08:51:45;5.43;;;4.82;;
77298;SDS011;66361;52.034;20.656;2023-04-24T08:55:49;7.80;;;4.90;;
77298;SDS011;66361;52.034;20.656;2023-04-24T08:59:54;7.25;;;6.07;;
77298;SDS011;66361;52.034;20.656;2023-04-24T09:03:58;8.95;;;7.45;;
77298;SDS011;66361;52.034;20.656;2023-04-24T09:08:05;10.80;;;9.00;;
77298;SDS011;66361;52.034;20.656;2023-04-24T09:12:12;8.60;;;7.70;;
77298;SDS011;66361;52.034;20.656;2023-04-24T09:16:16;11.07;;;8.05;;
77298;SDS011;66361;52.034;20.656;2023-04-24T09:20:20;8.82;;;6.65;;
77298;SDS011;66361;52.034;20.656;2023-04-24T09:24:25;8.98;;;6.82;;
77298;SDS011;66361;52.034;20.656;2023-04-24T09:28:29;8.23;;;7.32;;
77298;SDS011;66361;52.034;20.656;2023-04-24T09:32:35;7.32;;;5.88;;
77298;SDS011;66361;52.034;20.656;2023-04-24T09:36:39;7.03;;;6.28;;
77298;SDS011;66361;52.034;20.656;2023-04-24T09:40:44;12.25;;;7.78;;
77298;SDS011;66361;52.034;20.656;2023-04-24T09:44:47;9.15;;;6.55;;
77298;SDS011;66361;52.034;20.656;2023-04-24T09:49:08;20.65;;;6.18;;
77298;SDS011;66361;52.034;20.656;2023-04-24T09:53:12;9.18;;;5.60;;
77298;SDS011;66361;52.034;20.656;2023-04-24T09:57:16;7.97;;;5.97;;
77298;SDS011;66361;52.034;20.656;2023-04-24T10:01:29;7.80;;;6.75;;
77298;SDS011;66361;52.034;20.656;2023-04-24T10:05:37;7.53;;;6.72;;
77298;SDS011;66361;52.034;20.656;2023-04-24T10:09:41;7.45;;;6.65;;
77298;SDS011;66361;52.034;20.656;2023-04-24T10:13:45;9.25;;;6.95;;
77298;SDS011;66361;52.034;20.656;2023-04-24T10:17:48;9.75;;;7.35;;
77298;SDS011;66361;52.034;20.656;2023-04-24T10:21:56;14.32;;;7.43;;
77298;SDS011;66361;52.034;20.656;2023-04-24T10:26:00;9.70;;;6.80;;
77298;SDS011;66361;52.034;20.656;2023-04-24T10:30:04;10.10;;;7.32;;
77298;SDS011;66361;52.034;20.656;2023-04-24T10:34:09;11.52;;;7.40;;
77298;SDS011;66361;52.034;20.656;2023-04-24T10:38:18;9.38;;;7.97;;
77298;SDS011;66361;52.034;20.656;2023-04-24T10:42:27;9.27;;;7.10;;
77298;SDS011;66361;52.034;20.656;2023-04-24T10:46:30;8.55;;;7.72;;
77298;SDS011;66361;52.034;20.656;2023-04-24T10:50:43;10.55;;;8.20;;
77298;SDS011;66361;52.034;20.656;2023-04-24T10:54:49;9.38;;;7.20;;
77298;SDS011;66361;52.034;20.656;2023-04-24T10:58:52;8.00;;;6.57;;
77298;SDS011;66361;52.034;20.656;2023-04-24T11:02:56;7.45;;;6.10;;
77298;SDS011;66361;52.034;20.656;2023-04-24T11:07:00;8.10;;;6.30;;
77298;SDS011;66361;52.034;20.656;2023-04-24T11:11:08;10.30;;;6.78;;
77298;SDS011;66361;52.034;20.656;2023-04-24T11:15:13;6.93;;;6.22;;
77298;SDS011;66361;52.034;20.656;2023-04-24T11:19:20;6.88;;;5.82;;
77298;SDS011;66361;52.034;20.656;2023-04-24T11:23:26;6.15;;;5.40;;
77298;SDS011;66361;52.034;20.656;2023-04-24T11:27:30;7.32;;;6.30;;
77298;SDS011;66361;52.034;20.656;2023-04-24T11:31:35;7.80;;;6.28;;
77298;SDS011;66361;52.034;20.656;2023-04-24T11:35:42;6.47;;;5.55;;
77298;SDS011;66361;52.034;20.656;2023-04-24T11:39:46;7.22;;;6.00;;
77298;SDS011;66361;52.034;20.656;2023-04-24T11:43:51;7.68;;;5.13;;
77298;SDS011;66361;52.034;20.656;2023-04-24T11:47:57;8.20;;;5.57;;
77298;SDS011;66361;52.034;20.656;2023-04-24T11:52:00;6.65;;;5.10;;
77298;SDS011;66361;52.034;20.656;2023-04-24T11:56:03;8.15;;;5.50;;
77298;SDS011;66361;52.034;20.656;2023-04-24T12:00:14;7.50;;;5.65;;
77298;SDS011;66361;52.034;20.656;2023-04-24T12:04:18;13.18;;;7.05;;
77298;SDS011;66361;52.034;20.656;2023-04-24T12:08:30;6.03;;;5.43;;
77298;SDS011;66361;52.034;20.656;2023-04-24T12:12:38;6.65;;;5.22;;
77298;SDS011;66361;52.034;20.656;2023-04-24T12:16:42;5.97;;;5.38;;
77298;SDS011;66361;52.034;20.656;2023-04-24T12:20:55;6.68;;;4.60;;
77298;SDS011;66361;52.034;20.656;2023-04-24T12:25:01;6.00;;;3.90;;
77298;SDS011;66361;52.034;20.656;2023-04-24T12:29:06;7.13;;;3.47;;
77298;SDS011;66361;52.034;20.656;2023-04-24T12:33:11;265.48;;;31.83;;
77298;SDS011;66361;52.034;20.656;2023-04-24T12:37:14;6.28;;;3.33;;
77298;SDS011;66361;52.034;20.656;2023-04-24T12:41:17;6.55;;;3.63;;
77298;SDS011;66361;52.034;20.656;2023-04-24T12:45:20;5.95;;;3.58;;
77298;SDS011;66361;52.034;20.656;2023-04-24T12:49:28;5.10;;;3.78;;
77298;SDS011;66361;52.034;20.656;2023-04-24T12:53:35;4.88;;;3.65;;
77298;SDS011;66361;52.034;20.656;2023-04-24T12:57:40;6.15;;;4.25;;
77298;SDS011;66361;52.034;20.656;2023-04-24T13:01:43;7.07;;;4.13;;
77298;SDS011;66361;52.034;20.656;2023-04-24T13:05:48;5.47;;;4.60;;
77298;SDS011;66361;52.034;20.656;2023-04-24T13:09:51;5.35;;;4.38;;
77298;SDS011;66361;52.034;20.656;2023-04-24T13:13:55;4.70;;;4.20;;
77298;SDS011;66361;52.034;20.656;2023-04-24T13:17:59;4.47;;;4.07;;
77298;SDS011;66361;52.034;20.656;2023-04-24T13:22:04;5.85;;;4.93;;
77298;SDS011;66361;52.034;20.656;2023-04-24T13:26:08;5.20;;;4.50;;
77298;SDS011;66361;52.034;20.656;2023-04-24T13:30:11;7.40;;;4.20;;
77298;SDS011;66361;52.034;20.656;2023-04-24T13:34:14;5.72;;;4.80;;
77298;SDS011;66361;52.034;20.656;2023-04-24T13:38:19;5.47;;;4.45;;
77298;SDS011;66361;52.034;20.656;2023-04-24T13:42:23;6.15;;;4.70;;
77298;SDS011;66361;52.034;20.656;2023-04-24T13:46:26;6.07;;;4.63;;
77298;SDS011;66361;52.034;20.656;2023-04-24T13:50:30;5.22;;;4.30;;
77298;SDS011;66361;52.034;20.656;2023-04-24T13:54:35;5.05;;;4.07;;
77298;SDS011;66361;52.034;20.656;2023-04-24T13:58:38;4.88;;;4.25;;
77298;SDS011;66361;52.034;20.656;2023-04-24T14:02:43;6.35;;;4.30;;
77298;SDS011;66361;52.034;20.656;2023-04-24T14:06:46;4.93;;;4.38;;
77298;SDS011;66361;52.034;20.656;2023-04-24T14:10:53;4.93;;;4.40;;
77298;SDS011;66361;52.034;20.656;2023-04-24T14:14:56;5.53;;;4.32;;
77298;SDS011;66361;52.034;20.656;2023-04-24T14:19:00;4.53;;;3.95;;
77298;SDS011;66361;52.034;20.656;2023-04-24T14:23:03;4.40;;;4.00;;
77298;SDS011;66361;52.034;20.656;2023-04-24T14:27:08;5.05;;;4.00;;
77298;SDS011;66361;52.034;20.656;2023-04-24T14:31:11;4.53;;;3.67;;
77298;SDS011;66361;52.034;20.656;2023-04-24T14:35:14;5.38;;;3.80;;
77298;SDS011;66361;52.034;20.656;2023-04-24T14:39:20;5.18;;;3.78;;
77298;SDS011;66361;52.034;20.656;2023-04-24T14:43:28;5.38;;;3.50;;
77298;SDS011;66361;52.034;20.656;2023-04-24T14:47:31;4.32;;;3.92;;
77298;SDS011;66361;52.034;20.656;2023-04-24T14:51:35;4.93;;;4.22;;
77298;SDS011;66361;52.034;20.656;2023-04-24T14:55:38;9.63;;;4.07;;
77298;SDS011;66361;52.034;20.656;2023-04-24T14:59:45;4.45;;;3.92;;
77298;SDS011;66361;52.034;20.656;2023-04-24T15:03:48;4.70;;;4.05;;
77298;SDS011;66361;52.034;20.656;2023-04-24T15:07:52;4.38;;;3.78;;
77298;SDS011;66361;52.034;20.656;2023-04-24T15:11:55;4.13;;;3.72;;
77298;SDS011;66361;52.034;20.656;2023-04-24T15:16:00;4.47;;;4.00;;
77298;SDS011;66361;52.034;20.656;2023-04-24T15:20:04;5.05;;;4.15;;
77298;SDS011;66361;52.034;20.656;2023-04-24T15:24:11;5.95;;;3.95;;
77298;SDS011;66361;52.034;20.656;2023-04-24T15:28:14;5.55;;;4.45;;
77298;SDS011;66361;52.034;20.656;2023-04-24T15:32:20;4.95;;;4.05;;
77298;SDS011;66361;52.034;20.656;2023-04-24T15:36:24;4.60;;;4.10;;
77298;SDS011;66361;52.034;20.656;2023-04-24T15:40:27;5.68;;;4.07;;
77298;SDS011;66361;52.034;20.656;2023-04-24T15:44:30;7.35;;;4.13;;
77298;SDS011;66361;52.034;20.656;2023-04-24T15:48:35;4.82;;;4.07;;
77298;SDS011;66361;52.034;20.656;2023-04-24T15:52:40;6.40;;;4.30;;
77298;SDS011;66361;52.034;20.656;2023-04-24T15:56:43;5.75;;;4.00;;
77298;SDS011;66361;52.034;20.656;2023-04-24T16:00:46;5.07;;;3.83;;
77298;SDS011;66361;52.034;20.656;2023-04-24T16:04:51;5.53;;;4.15;;
77298;SDS011;66361;52.034;20.656;2023-04-24T16:08:55;4.40;;;4.00;;
77298;SDS011;66361;52.034;20.656;2023-04-24T16:13:00;4.70;;;4.13;;
77298;SDS011;66361;52.034;20.656;2023-04-24T16:17:05;5.53;;;4.55;;
77298;SDS011;66361;52.034;20.656;2023-04-24T16:21:15;5.57;;;4.10;;
77298;SDS011;66361;52.034;20.656;2023-04-24T16:25:18;6.18;;;4.72;;
77298;SDS011;66361;52.034;20.656;2023-04-24T16:29:21;4.90;;;4.50;;
77298;SDS011;66361;52.034;20.656;2023-04-24T16:33:24;5.45;;;4.20;;
77298;SDS011;66361;52.034;20.656;2023-04-24T16:37:29;6.00;;;4.63;;
77298;SDS011;66361;52.034;20.656;2023-04-24T16:41:33;5.47;;;4.45;;
77298;SDS011;66361;52.034;20.656;2023-04-24T16:45:38;8.45;;;4.35;;
77298;SDS011;66361;52.034;20.656;2023-04-24T16:49:41;5.68;;;5.07;;
77298;SDS011;66361;52.034;20.656;2023-04-24T16:53:45;6.45;;;5.20;;
77298;SDS011;66361;52.034;20.656;2023-04-24T16:57:48;6.40;;;4.28;;
77298;SDS011;66361;52.034;20.656;2023-04-24T17:01:51;6.40;;;4.22;;
77298;SDS011;66361;52.034;20.656;2023-04-24T17:05:58;6.78;;;4.95;;
77298;SDS011;66361;52.034;20.656;2023-04-24T17:10:02;9.60;;;5.45;;
77298;SDS011;66361;52.034;20.656;2023-04-24T17:14:06;7.40;;;5.65;;
77298;SDS011;66361;52.034;20.656;2023-04-24T17:18:09;6.60;;;5.03;;
77298;SDS011;66361;52.034;20.656;2023-04-24T17:22:13;6.85;;;4.70;;
77298;SDS011;66361;52.034;20.656;2023-04-24T17:26:18;7.47;;;4.97;;
77298;SDS011;66361;52.034;20.656;2023-04-24T17:30:22;7.47;;;5.20;;
77298;SDS011;66361;52.034;20.656;2023-04-24T17:34:32;7.68;;;5.22;;
77298;SDS011;66361;52.034;20.656;2023-04-24T17:38:35;7.63;;;5.82;;
77298;SDS011;66361;52.034;20.656;2023-04-24T17:42:40;8.85;;;6.03;;
77298;SDS011;66361;52.034;20.656;2023-04-24T17:46:43;8.50;;;6.25;;
77298;SDS011;66361;52.034;20.656;2023-04-24T17:50:47;7.65;;;6.55;;
77298;SDS011;66361;52.034;20.656;2023-04-24T17:54:50;9.73;;;6.35;;
77298;SDS011;66361;52.034;20.656;2023-04-24T17:58:58;9.32;;;6.78;;
77298;SDS011;66361;52.034;20.656;2023-04-24T18:03:01;11.20;;;7.22;;
77298;SDS011;66361;52.034;20.656;2023-04-24T18:07:05;14.55;;;7.60;;
77298;SDS011;66361;52.034;20.656;2023-04-24T18:11:08;11.38;;;6.97;;
77298;SDS011;66361;52.034;20.656;2023-04-24T18:15:12;12.18;;;6.68;;
77298;SDS011;66361;52.034;20.656;2023-04-24T18:19:17;9.80;;;7.45;;
77298;SDS011;66361;52.034;20.656;2023-04-24T18:23:20;8.32;;;6.75;;
77298;SDS011;66361;52.034;20.656;2023-04-24T18:27:23;11.60;;;8.02;;
77298;SDS011;66361;52.034;20.656;2023-04-24T18:31:28;14.43;;;7.63;;
77298;SDS011;66361;52.034;20.656;2023-04-24T18:35:32;11.50;;;7.70;;
77298;SDS011;66361;52.034;20.656;2023-04-24T18:43:38;11.95;;;8.48;;
77298;SDS011;66361;52.034;20.656;2023-04-24T18:47:42;11.00;;;8.80;;
77298;SDS011;66361;52.034;20.656;2023-04-24T18:51:45;11.93;;;8.55;;
77298;SDS011;66361;52.034;20.656;2023-04-24T18:55:54;14.65;;;9.65;;
77298;SDS011;66361;52.034;20.656;2023-04-24T19:04:04;15.27;;;10.20;;
77298;SDS011;66361;52.034;20.656;2023-04-24T19:08:15;12.60;;;8.00;;
77298;SDS011;66361;52.034;20.656;2023-04-24T19:12:18;21.48;;;13.52;;
77298;SDS011;66361;52.034;20.656;2023-04-24T19:16:23;13.07;;;8.95;;
77298;SDS011;66361;52.034;20.656;2023-04-24T19:20:28;11.80;;;8.43;;
77298;SDS011;66361;52.034;20.656;2023-04-24T19:24:31;14.13;;;9.07;;
77298;SDS011;66361;52.034;20.656;2023-04-24T19:28:34;13.05;;;8.52;;
77298;SDS011;66361;52.034;20.656;2023-04-24T19:32:39;12.10;;;9.60;;
77298;SDS011;66361;52.034;20.656;2023-04-24T19:36:43;10.23;;;8.23;;
77298;SDS011;66361;52.034;20.656;2023-04-24T19:40:47;13.35;;;9.05;;
77298;SDS011;66361;52.034;20.656;2023-04-24T19:44:50;11.07;;;7.70;;
77298;SDS011;66361;52.034;20.656;2023-04-24T19:48:53;13.63;;;9.43;;
77298;SDS011;66361;52.034;20.656;2023-04-24T19:52:57;11.85;;;8.20;;
77298;SDS011;66361;52.034;20.656;2023-04-24T19:57:03;12.27;;;9.05;;
77298;SDS011;66361;52.034;20.656;2023-04-24T20:01:06;11.63;;;8.95;;
77298;SDS011;66361;52.034;20.656;2023-04-24T20:05:10;12.95;;;8.57;;
77298;SDS011;66361;52.034;20.656;2023-04-24T20:09:14;15.25;;;9.77;;
77298;SDS011;66361;52.034;20.656;2023-04-24T20:13:18;11.45;;;8.95;;
77298;SDS011;66361;52.034;20.656;2023-04-24T20:17:21;11.23;;;9.02;;
77298;SDS011;66361;52.034;20.656;2023-04-24T20:21:24;10.60;;;8.95;;
77298;SDS011;66361;52.034;20.656;2023-04-24T20:25:30;10.32;;;8.13;;
77298;SDS011;66361;52.034;20.656;2023-04-24T20:29:34;9.07;;;8.15;;
77298;SDS011;66361;52.034;20.656;2023-04-24T20:37:44;9.57;;;7.82;;
77298;SDS011;66361;52.034;20.656;2023-04-24T20:41:48;10.25;;;8.13;;
77298;SDS011;66361;52.034;20.656;2023-04-24T20:45:52;11.23;;;8.27;;
77298;SDS011;66361;52.034;20.656;2023-04-24T20:49:55;10.48;;;7.90;;
77298;SDS011;66361;52.034;20.656;2023-04-24T20:54:02;13.15;;;8.48;;
77298;SDS011;66361;52.034;20.656;2023-04-24T20:58:07;11.45;;;7.40;;
77298;SDS011;66361;52.034;20.656;2023-04-24T21:02:11;10.98;;;8.90;;
77298;SDS011;66361;52.034;20.656;2023-04-24T21:06:14;14.07;;;8.73;;
77298;SDS011;66361;52.034;20.656;2023-04-24T21:10:17;10.95;;;9.43;;
77298;SDS011;66361;52.034;20.656;2023-04-24T21:14:22;12.05;;;9.63;;
77298;SDS011;66361;52.034;20.656;2023-04-24T21:18:27;11.85;;;8.98;;
77298;SDS011;66361;52.034;20.656;2023-04-24T21:22:32;13.60;;;9.70;;
77298;SDS011;66361;52.034;20.656;2023-04-24T21:26:36;13.52;;;9.52;;
77298;SDS011;66361;52.034;20.656;2023-04-24T21:34:43;13.77;;;10.90;;
77298;SDS011;66361;52.034;20.656;2023-04-24T21:38:46;14.23;;;10.48;;
77298;SDS011;66361;52.034;20.656;2023-04-24T21:42:51;13.75;;;10.35;;
77298;SDS011;66361;52.034;20.656;2023-04-24T21:46:55;14.77;;;10.73;;
77298;SDS011;66361;52.034;20.656;2023-04-24T21:50:59;14.32;;;10.95;;
77298;SDS011;66361;52.034;20.656;2023-04-24T21:55:02;14.68;;;10.52;;
77298;SDS011;66361;52.034;20.656;2023-04-24T21:59:05;14.52;;;10.80;;
77298;SDS011;66361;52.034;20.656;2023-04-24T22:03:10;13.45;;;10.77;;
77298;SDS011;66361;52.034;20.656;2023-04-24T22:07:15;15.20;;;10.93;;
77298;SDS011;66361;52.034;20.656;2023-04-24T22:11:21;13.25;;;10.27;;
77298;SDS011;66361;52.034;20.656;2023-04-24T22:15:27;14.20;;;10.70;;
77298;SDS011;66361;52.034;20.656;2023-04-24T22:19:33;13.80;;;10.80;;
77298;SDS011;66361;52.034;20.656;2023-04-24T22:23:38;16.23;;;11.98;;
77298;SDS011;66361;52.034;20.656;2023-04-24T22:27:42;18.30;;;12.50;;
77298;SDS011;66361;52.034;20.656;2023-04-24T22:31:45;16.38;;;11.57;;
77298;SDS011;66361;52.034;20.656;2023-04-24T22:35:50;16.08;;;11.40;;
77298;SDS011;66361;52.034;20.656;2023-04-24T22:39:52;15.77;;;11.93;;
77298;SDS011;66361;52.034;20.656;2023-04-24T22:43:55;18.17;;;12.27;;
77298;SDS011;66361;52.034;20.656;2023-04-24T22:52:02;16.85;;;12.48;;
77298;SDS011;66361;52.034;20.656;2023-04-24T22:56:06;17.42;;;12.80;;
77298;SDS011;66361;52.034;20.656;2023-04-24T23:00:09;16.88;;;12.35;;
77298;SDS011;66361;52.034;20.656;2023-04-24T23:04:16;17.45;;;13.27;;
77298;SDS011;66361;52.034;20.656;2023-04-24T23:08:20;16.15;;;11.43;;
77298;SDS011;66361;52.034;20.656;2023-04-24T23:12:24;16.40;;;13.05;;
77298;SDS011;66361;52.034;20.656;2023-04-24T23:16:27;15.23;;;11.88;;
77298;SDS011;66361;52.034;20.656;2023-04-24T23:20:38;16.50;;;12.68;;
77298;SDS011;66361;52.034;20.656;2023-04-24T23:24:43;19.48;;;12.60;;
77298;SDS011;66361;52.034;20.656;2023-04-24T23:28:46;17.63;;;12.50;;
77298;SDS011;66361;52.034;20.656;2023-04-24T23:32:48;16.65;;;12.05;;
77298;SDS011;66361;52.034;20.656;2023-04-24T23:40:55;16.13;;;11.35;;
77298;SDS011;66361;52.034;20.656;2023-04-24T23:44:58;16.00;;;12.15;;
77298;SDS011;66361;52.034;20.656;2023-04-24T23:49:01;16.83;;;12.18;;
77298;SDS011;66361;52.034;20.656;2023-04-24T23:53:05;17.55;;;11.82;;
77298;SDS011;66361;52.034;20.656;2023-04-24T23:57:10;17.85;;;12.98;;
